Time;durP1;ratioP1;P1;durP2;ratioP2;P2;SDS_P1;SDS_P2;PMS_P1;PMS_P2;Temp;Humidity;BMP_temperature;BMP_pressure;BME280_temperature;BME280_humidity;BME280_pressure;Samples;Min_cycle;Max_cycle;Signal;HPM_P1;HPM_P2
2021/10/07 00:00:31;;;;;;;0.32;0.20;;;;;;;26.37;35.78;97316.03;5027385;28;20143;-33
2021/10/07 00:02:57;;;;;;;0.28;0.10;;;;;;;26.36;35.64;97315.19;5029412;28;20033;-35
2021/10/07 00:05:22;;;;;;;0.20;0.20;;;;;;;26.36;35.62;97320.47;5032042;28;20029;-36
2021/10/07 00:07:47;;;;;;;0.10;0.10;;;;;;;26.35;35.84;97316.97;5025169;28;20021;-32
2021/10/07 00:10:13;;;;;;;0.20;0.20;;;;;;;26.34;35.75;97315.28;5029882;28;20451;-35
2021/10/07 00:12:38;;;;;;;0.10;0.10;;;;;;;26.34;35.58;97317.03;5031714;28;20551;-31
2021/10/07 00:15:04;;;;;;;0.00;0.00;;;;;;;26.34;35.66;97317.03;5013105;28;20037;-35
2021/10/07 00:17:30;;;;;;;0.20;0.20;;;;;;;26.34;35.61;97320.53;5030398;28;20032;-39
2021/10/07 00:19:55;;;;;;;0.20;0.15;;;;;;;26.34;35.74;97323.16;5029334;28;20314;-34
2021/10/07 00:22:20;;;;;;;0.20;0.20;;;;;;;26.34;35.61;97320.53;5010645;28;20650;-32
2021/10/07 00:24:46;;;;;;;0.20;0.20;;;;;;;26.33;35.58;97318.81;5028377;28;20025;-37
2021/10/07 00:27:11;;;;;;;0.20;0.20;;;;;;;26.33;35.68;97321.47;5027219;28;20037;-35
2021/10/07 00:29:43;;;;;;;0.15;0.10;;;;;;;26.33;35.69;97316.19;5028936;28;20091;-36
2021/10/07 00:32:11;;;;;;;0.10;0.10;;;;;;;26.32;35.68;97314.47;5026496;28;20508;-30
2021/10/07 00:39:42;;;;;;;0.10;0.10;;;;;;;26.33;35.73;97310.09;5028113;28;20499;-36
2021/10/07 00:42:08;;;;;;;0.10;0.10;;;;;;;26.33;35.68;97305.69;5011023;28;20036;-38
2021/10/07 00:44:33;;;;;;;0.45;0.10;;;;;;;26.33;35.69;97316.19;5009320;28;20036;-33
2021/10/07 00:47:00;;;;;;;0.20;0.10;;;;;;;26.31;35.60;97312.78;5025852;28;20029;-38
2021/10/07 00:49:26;;;;;;;0.20;0.20;;;;;;;26.31;35.64;97312.78;5029195;28;20539;-37
2021/10/07 00:51:52;;;;;;;0.10;0.10;;;;;;;26.32;35.66;97309.22;5013763;28;20033;-39
2021/10/07 00:54:18;;;;;;;0.40;0.20;;;;;;;26.31;35.68;97307.53;5031467;28;20060;-32
2021/10/07 00:56:44;;;;;;;0.13;0.13;;;;;;;26.31;35.61;97312.78;5015329;28;20583;-35
2021/10/07 00:59:09;;;;;;;0.10;0.10;;;;;;;26.31;35.67;97304.91;5029764;28;20045;-34
2021/10/07 01:01:35;;;;;;;0.20;0.20;;;;;;;26.31;35.61;97302.25;5030083;28;20027;-34
2021/10/07 01:04:00;;;;;;;0.10;0.10;;;;;;;26.30;35.68;97300.56;5033333;28;20024;-30
2021/10/07 01:06:26;;;;;;;0.17;0.17;;;;;;;26.31;35.72;97306.69;5025973;28;20535;-34
2021/10/07 01:08:51;;;;;;;0.10;0.10;;;;;;;26.30;35.63;97310.22;5031852;28;20032;-34
2021/10/07 01:11:16;;;;;;;0.20;0.20;;;;;;;26.30;35.71;97310.22;5031837;28;20024;-35
2021/10/07 01:13:42;;;;;;;0.20;0.20;;;;;;;26.29;35.72;97309.38;5017810;28;20569;-36
2021/10/07 01:16:08;;;;;;;0.28;0.08;;;;;;;26.28;35.68;97307.66;5032622;28;20033;-33
2021/10/07 01:18:33;;;;;;;0.10;0.10;;;;;;;26.29;35.73;97309.38;5019860;28;20053;-36
2021/10/07 01:20:59;;;;;;;0.10;0.10;;;;;;;26.29;35.78;97317.25;5031812;28;20265;-35
2021/10/07 01:23:24;;;;;;;0.13;0.13;;;;;;;26.27;35.80;97313.84;5014891;28;20102;-30
2021/10/07 01:25:50;;;;;;;0.03;0.03;;;;;;;26.30;35.78;97315.47;5030206;28;20053;-38
2021/10/07 01:28:15;;;;;;;0.05;0.05;;;;;;;26.30;35.66;97311.09;5014865;28;20062;-31
2021/10/07 01:30:41;;;;;;;0.10;0.10;;;;;;;26.30;35.75;97315.47;5029919;28;20040;-37
2021/10/07 01:33:06;;;;;;;0.00;0.00;;;;;;;26.30;35.69;97315.47;5032442;28;20029;-29
2021/10/07 01:35:31;;;;;;;0.10;0.10;;;;;;;26.30;35.65;97318.09;5032045;28;20028;-33
2021/10/07 01:37:57;;;;;;;0.10;0.10;;;;;;;26.29;35.63;97319.91;5031047;28;20036;-35
2021/10/07 01:40:22;;;;;;;0.10;0.10;;;;;;;26.29;35.69;97319.91;5031396;28;20039;-32
2021/10/07 01:42:48;;;;;;;0.30;0.20;;;;;;;26.30;35.58;97325.97;5031124;28;20021;-35
2021/10/07 01:45:13;;;;;;;0.28;0.20;;;;;;;26.29;35.57;97322.53;5033230;28;20092;-30
2021/10/07 01:47:39;;;;;;;0.55;0.30;;;;;;;26.28;35.79;97328.69;5032726;28;20028;-30
2021/10/07 01:50:05;;;;;;;0.20;0.20;;;;;;;26.30;35.68;97318.09;5031975;28;20028;-33
2021/10/07 01:52:30;;;;;;;0.10;0.10;;;;;;;26.29;35.72;97329.53;4996118;28;20041;-36
2021/10/07 01:54:56;;;;;;;0.10;0.10;;;;;;;26.28;35.58;97318.16;5032434;28;20134;-32
2021/10/07 01:57:21;;;;;;;0.10;0.10;;;;;;;26.28;35.62;97318.16;5018149;28;20060;-31
2021/10/07 01:59:47;;;;;;;0.05;0.05;;;;;;;26.28;35.64;97323.41;5031126;28;20031;-34
2021/10/07 02:02:12;;;;;;;0.03;0.03;;;;;;;26.28;35.67;97320.78;5030800;28;20582;-33
2021/10/07 02:04:37;;;;;;;0.10;0.10;;;;;;;26.27;35.70;97315.63;5027920;28;20025;-30
2021/10/07 02:07:03;;;;;;;0.13;0.10;;;;;;;26.28;35.62;97318.16;5010555;28;20029;-36
2021/10/07 02:09:28;;;;;;;0.10;0.10;;;;;;;26.28;35.70;97320.78;5032105;28;20057;-35
2021/10/07 02:11:54;;;;;;;0.10;0.10;;;;;;;26.27;35.56;97319.09;5030270;28;20028;-32
2021/10/07 02:14:19;;;;;;;0.65;0.10;;;;;;;26.27;35.65;97316.47;5029184;28;20044;-34
2021/10/07 02:16:45;;;;;;;0.20;0.20;;;;;;;26.28;35.53;97312.06;5026647;28;20059;-36
2021/10/07 02:19:10;;;;;;;0.30;0.20;;;;;;;26.28;35.69;97312.91;5029195;28;20029;-34
2021/10/07 02:21:35;;;;;;;0.10;0.10;;;;;;;26.27;35.56;97315.63;5028606;28;20398;-32
2021/10/07 02:24:01;;;;;;;0.10;0.10;;;;;;;26.27;35.60;97313.00;5016790;28;20811;-36
2021/10/07 02:26:27;;;;;;;0.10;0.10;;;;;;;26.26;35.70;97309.53;5031294;28;20029;-34
2021/10/07 02:28:52;;;;;;;0.28;0.20;;;;;;;26.26;35.77;97321.78;5028316;28;20036;-35
2021/10/07 02:31:18;;;;;;;0.10;0.10;;;;;;;26.26;35.61;97316.53;5027023;28;20501;-34
2021/10/07 02:33:43;;;;;;;1.20;0.20;;;;;;;26.26;35.60;97325.28;5004265;28;20021;-39
2021/10/07 02:36:08;;;;;;;0.10;0.10;;;;;;;26.26;35.68;97327.91;5029058;28;20366;-33
2021/10/07 02:38:34;;;;;;;0.10;0.00;;;;;;;26.26;35.77;97325.28;5013906;28;20561;-31
2021/10/07 02:40:59;;;;;;;0.10;0.10;;;;;;;26.25;35.53;97323.56;5013345;28;20535;-38
2021/10/07 02:43:25;;;;;;;0.10;0.10;;;;;;;26.25;35.74;97322.69;5015233;28;20047;-34
2021/10/07 02:45:50;;;;;;;0.10;0.10;;;;;;;26.25;35.65;97334.06;5027090;28;20079;-30
2021/10/07 02:48:15;;;;;;;0.30;0.20;;;;;;;26.24;35.66;97332.38;5033206;28;20048;-39
2021/10/07 02:50:41;;;;;;;0.10;0.00;;;;;;;26.23;35.72;97331.50;5035009;28;20759;-34
2021/10/07 02:53:06;;;;;;;0.10;0.10;;;;;;;26.25;35.72;97328.81;5033000;28;20136;-31
2021/10/07 02:55:32;;;;;;;0.10;0.10;;;;;;;26.24;35.66;97332.38;5030760;28;20024;-35
2021/10/07 02:57:57;;;;;;;0.30;0.13;;;;;;;26.25;35.72;97335.81;5012424;28;20040;-35
2021/10/07 03:00:23;;;;;;;0.10;0.10;;;;;;;26.24;35.73;97335.00;5029488;28;20036;-35
2021/10/07 03:02:48;;;;;;;0.10;0.10;;;;;;;26.24;35.69;97342.88;5029940;28;20068;-36
2021/10/07 03:05:13;;;;;;;0.10;0.10;;;;;;;26.24;35.73;97348.13;5028896;28;20078;-30
2021/10/07 03:07:39;;;;;;;0.05;0.05;;;;;;;26.20;35.75;97338.69;5027603;28;20030;-29
2021/10/07 03:10:05;;;;;;;0.13;0.10;;;;;;;26.24;35.58;97342.88;5031493;28;20063;-34
2021/10/07 03:12:31;;;;;;;0.10;0.10;;;;;;;26.22;35.76;97340.31;5028055;28;20056;-30
2021/10/07 03:14:56;;;;;;;0.10;0.10;;;;;;;26.23;35.73;97346.41;5027841;28;20024;-38
2021/10/07 03:17:21;;;;;;;0.10;0.10;;;;;;;26.22;35.77;97344.69;5029153;28;20757;-38
2021/10/07 03:19:47;;;;;;;0.10;0.08;;;;;;;26.22;35.75;97355.22;5022776;28;20382;-33
2021/10/07 03:22:15;;;;;;;0.28;0.15;;;;;;;26.22;35.67;97353.44;5030202;28;20033;-36
2021/10/07 03:24:41;;;;;;;0.10;0.10;;;;;;;26.23;35.80;97351.66;5011233;28;20033;-31
2021/10/07 03:27:06;;;;;;;0.10;0.10;;;;;;;26.19;35.70;97345.69;5001369;28;20856;-33
2021/10/07 03:29:31;;;;;;;0.10;0.10;;;;;;;26.21;35.69;97354.34;5026261;28;20087;-31
2021/10/07 03:31:57;;;;;;;0.10;0.10;;;;;;;26.21;35.61;97348.25;5028250;28;20025;-36
2021/10/07 03:34:22;;;;;;;0.10;0.10;;;;;;;26.22;35.63;97360.47;5030348;28;20025;-37
2021/10/07 03:36:48;;;;;;;0.03;0.03;;;;;;;26.21;35.59;97358.78;5028283;28;20032;-32
2021/10/07 03:39:13;;;;;;;0.00;0.00;;;;;;;26.21;35.62;97358.78;5030842;28;20040;-34
2021/10/07 03:41:38;;;;;;;0.10;0.10;;;;;;;26.20;35.69;97351.81;5027587;28;20097;-31
2021/10/07 03:44:04;;;;;;;0.32;0.10;;;;;;;26.20;35.68;97357.91;5006420;28;20399;-37
2021/10/07 03:46:29;;;;;;;0.08;0.00;;;;;;;26.22;35.77;97365.72;5030095;28;20564;-34
2021/10/07 03:48:55;;;;;;;0.10;0.10;;;;;;;26.22;35.68;97365.72;5026753;28;20612;-36
2021/10/07 03:51:20;;;;;;;0.13;0.13;;;;;;;26.20;35.59;97362.31;5028246;28;20039;-31
2021/10/07 03:53:46;;;;;;;0.20;0.10;;;;;;;26.20;35.68;97367.56;5030632;28;20474;-32
2021/10/07 03:56:11;;;;;;;0.15;0.15;;;;;;;26.21;35.54;97366.66;5028636;28;20083;-36
2021/10/07 03:58:37;;;;;;;0.10;0.10;;;;;;;26.20;35.73;97370.22;5030874;28;20039;-35
2021/10/07 04:01:02;;;;;;;0.70;0.10;;;;;;;26.20;35.68;97367.56;5028984;28;20070;-33
2021/10/07 04:03:27;;;;;;;0.28;0.10;;;;;;;26.19;35.50;97365.84;5031031;28;20029;-37
2021/10/07 04:05:55;;;;;;;0.30;0.20;;;;;;;26.19;35.53;97361.47;5012796;28;20839;-29
2021/10/07 04:08:20;;;;;;;0.10;0.10;;;;;;;26.19;35.60;97365.84;5026641;28;20029;-33
2021/10/07 04:10:50;;;;;;;0.10;0.10;;;;;;;26.19;35.75;97365.84;5027473;28;20071;-32
2021/10/07 04:13:16;;;;;;;0.00;0.00;;;;;;;26.19;35.60;97371.09;5030239;28;20097;-35
2021/10/07 04:15:42;;;;;;;0.10;0.10;;;;;;;26.18;35.58;97364.16;5027296;28;20109;-33
2021/10/07 04:18:08;;;;;;;0.25;0.20;;;;;;;26.18;35.66;97369.41;5026234;28;20026;-35
2021/10/07 04:20:33;;;;;;;0.10;0.10;;;;;;;26.18;35.78;97377.28;5015041;28;20569;-37
2021/10/07 04:22:59;;;;;;;0.00;0.00;;;;;;;26.17;35.70;97378.22;5026753;28;20179;-36
2021/10/07 04:25:24;;;;;;;0.10;0.10;;;;;;;26.17;35.67;97378.22;5012778;28;20091;-35
2021/10/07 04:27:55;;;;;;;0.10;0.10;;;;;;;26.17;35.58;97384.34;5027659;28;20026;-35
2021/10/07 04:30:21;;;;;;;0.03;0.03;;;;;;;26.18;35.79;97382.53;5013993;28;20029;-35
2021/10/07 04:32:46;;;;;;;0.10;0.10;;;;;;;26.17;35.55;97379.09;5026830;28;20037;-35
2021/10/07 04:35:12;;;;;;;6.82;0.20;;;;;;;26.17;35.65;97378.22;5029417;28;20088;-34
2021/10/07 04:37:37;;;;;;;0.20;0.00;;;;;;;26.16;35.51;97376.53;4998747;28;20021;-35
2021/10/07 04:40:04;;;;;;;0.15;0.10;;;;;;;26.16;35.72;97387.84;5026160;28;20048;-34
2021/10/07 04:42:29;;;;;;;0.10;0.10;;;;;;;26.16;35.63;97392.28;5001295;28;20025;-34
2021/10/07 04:44:54;;;;;;;0.20;0.10;;;;;;;26.15;35.66;97385.28;5029897;28;20033;-36
2021/10/07 04:47:20;;;;;;;1.02;0.10;;;;;;;26.15;35.74;97388.78;5013097;28;20037;-38
2021/10/07 04:49:45;;;;;;;0.00;0.00;;;;;;;26.16;35.70;97397.53;5029027;28;20030;-34
2021/10/07 04:52:11;;;;;;;0.40;0.28;;;;;;;26.14;35.58;97389.72;5014514;28;20817;-36
2021/10/07 04:54:36;;;;;;;0.08;0.00;;;;;;;26.15;35.62;97393.19;5028939;28;20670;-37
2021/10/07 04:57:01;;;;;;;0.20;0.10;;;;;;;26.16;35.65;97394.91;5025787;28;20029;-36
2021/10/07 04:59:27;;;;;;;0.08;0.08;;;;;;;26.15;35.53;97401.06;5029151;28;20033;-37
2021/10/07 05:01:52;;;;;;;0.10;0.10;;;;;;;26.15;35.50;97407.19;5029585;28;20021;-33
2021/10/07 05:04:18;;;;;;;0.00;0.00;;;;;;;26.15;35.49;97407.19;5029233;28;20025;-35
2021/10/07 05:06:43;;;;;;;0.10;0.00;;;;;;;26.16;35.66;97408.03;5022158;28;20041;-35
2021/10/07 05:09:08;;;;;;;0.00;0.00;;;;;;;26.15;35.59;97406.31;5028890;28;20661;-35
2021/10/07 05:11:34;;;;;;;0.05;0.05;;;;;;;26.14;35.64;97409.88;5025568;28;20029;-34
2021/10/07 05:13:59;;;;;;;0.10;0.08;;;;;;;26.15;35.54;97416.81;5029962;28;20029;-36
2021/10/07 05:16:24;;;;;;;0.00;0.00;;;;;;;26.14;35.57;97409.88;5025680;28;20071;-30
2021/10/07 05:18:50;;;;;;;0.10;0.10;;;;;;;26.14;35.62;97418.63;5025679;28;20036;-34
2021/10/07 05:21:15;;;;;;;0.08;0.08;;;;;;;26.14;35.56;97420.38;5025315;28;20484;-30
2021/10/07 05:23:41;;;;;;;0.03;0.03;;;;;;;26.14;35.68;97423.88;5028022;28;20134;-36
2021/10/07 05:26:06;;;;;;;0.10;0.10;;;;;;;26.13;35.54;97416.91;5026320;28;20047;-34
2021/10/07 05:28:31;;;;;;;0.10;0.10;;;;;;;26.13;35.57;97424.78;5026245;28;20471;-36
2021/10/07 05:30:57;;;;;;;0.15;0.15;;;;;;;26.12;35.59;97420.44;5032829;28;20021;-36
2021/10/07 05:33:22;;;;;;;0.10;0.10;;;;;;;26.13;35.87;97421.31;5027383;28;20029;-33
2021/10/07 05:35:48;;;;;;;0.10;0.10;;;;;;;26.13;35.63;97430.03;5008628;28;20029;-34
2021/10/07 05:38:14;;;;;;;0.10;0.10;;;;;;;26.12;35.74;97432.75;5026359;28;20553;-30
2021/10/07 05:40:39;;;;;;;0.10;0.10;;;;;;;26.12;35.75;97440.63;5030160;28;20447;-30
2021/10/07 05:43:05;;;;;;;0.22;0.10;;;;;;;26.12;35.64;97435.38;5032115;28;20047;-34
2021/10/07 05:45:30;;;;;;;0.22;0.10;;;;;;;26.12;35.60;97448.50;5032109;28;20479;-38
2021/10/07 05:47:55;;;;;;;0.10;0.10;;;;;;;26.10;35.59;97446.75;5029242;28;20030;-34
2021/10/07 05:50:21;;;;;;;0.10;0.10;;;;;;;26.10;35.59;97446.75;5016628;28;20033;-35
2021/10/07 05:52:46;;;;;;;0.38;0.10;;;;;;;26.12;35.52;97448.50;5028313;28;20570;-36
2021/10/07 05:55:12;;;;;;;0.08;0.08;;;;;;;26.10;35.67;97452.03;5016051;28;20037;-36
2021/10/07 05:57:37;;;;;;;0.10;0.10;;;;;;;26.07;35.50;97441.66;5029862;28;20017;-32
2021/10/07 06:00:06;;;;;;;0.10;0.10;;;;;;;26.10;35.62;97446.75;5011157;28;20475;-33
2021/10/07 06:02:34;;;;;;;0.17;0.17;;;;;;;26.10;35.55;97448.56;5028650;28;20032;-33
2021/10/07 06:05:00;;;;;;;0.15;0.15;;;;;;;26.10;35.55;97446.75;5017084;28;20183;-35
2021/10/07 06:07:25;;;;;;;0.20;0.17;;;;;;;26.10;35.73;97457.28;5021062;28;20025;-29
2021/10/07 06:09:50;;;;;;;0.00;0.00;;;;;;;26.10;35.75;97459.91;5031265;28;20498;-32
2021/10/07 06:12:16;;;;;;;0.20;0.20;;;;;;;26.10;35.73;97459.06;5002996;28;20033;-32
2021/10/07 06:14:41;;;;;;;0.00;0.00;;;;;;;26.07;35.53;97457.44;4999135;28;20035;-29
2021/10/07 06:17:09;;;;;;;0.10;0.10;;;;;;;26.10;35.70;97466.94;5012181;28;20029;-28
2021/10/07 06:19:38;;;;;;;0.20;0.20;;;;;;;26.09;35.54;97467.88;5032616;28;20025;-30
2021/10/07 06:22:03;;;;;;;0.10;0.10;;;;;;;26.09;35.67;97471.34;5032526;28;20013;-36
2021/10/07 06:24:28;;;;;;;0.22;0.10;;;;;;;26.09;35.73;97473.97;5026371;28;20736;-31
2021/10/07 06:26:54;;;;;;;0.20;0.10;;;;;;;26.09;35.64;97463.44;5027646;28;20026;-29
2021/10/07 06:29:19;;;;;;;0.10;0.10;;;;;;;26.08;35.68;97464.38;5031872;28;20025;-35
2021/10/07 06:31:45;;;;;;;0.10;0.10;;;;;;;26.09;35.78;97476.59;5030754;28;20036;-35
2021/10/07 06:34:10;;;;;;;0.10;0.10;;;;;;;26.09;35.60;97475.75;5004837;28;20040;-34
2021/10/07 06:36:36;;;;;;;0.20;0.13;;;;;;;26.05;35.53;97468.94;5029594;28;20036;-32
2021/10/07 06:39:03;;;;;;;0.15;0.10;;;;;;;26.09;35.64;97481.84;5004202;28;20033;-36
2021/10/07 06:41:29;;;;;;;0.10;0.08;;;;;;;26.10;35.71;97488.78;5029456;28;20274;-32
2021/10/07 06:43:55;;;;;;;0.52;0.20;;;;;;;26.10;35.64;97482.72;5029441;28;20047;-33
2021/10/07 06:46:20;;;;;;;1.27;0.38;;;;;;;26.09;35.78;97497.59;5031080;28;20038;-30
2021/10/07 06:48:45;;;;;;;0.10;0.10;;;;;;;26.12;35.68;97501.03;5015941;28;20039;-31
2021/10/07 06:51:11;;;;;;;0.40;0.20;;;;;;;26.09;35.64;97489.72;5029622;28;20033;-33
2021/10/07 06:53:39;;;;;;;0.17;0.10;;;;;;;26.10;35.64;97494.03;5028651;28;20036;-32
2021/10/07 06:56:06;;;;;;;0.10;0.10;;;;;;;26.09;35.66;97494.97;5027494;28;20826;-32
2021/10/07 06:58:31;;;;;;;0.20;0.20;;;;;;;26.10;35.58;97499.31;5028144;28;20040;-32
2021/10/07 07:00:56;;;;;;;0.10;0.10;;;;;;;26.09;35.55;97500.22;5031148;28;20021;-31
2021/10/07 07:03:22;;;;;;;0.05;0.03;;;;;;;26.09;35.59;97508.09;5031554;28;20024;-31
2021/10/07 07:05:47;;;;;;;0.10;0.10;;;;;;;26.08;35.67;97511.66;5028981;28;20029;-37
2021/10/07 07:08:12;;;;;;;0.30;0.20;;;;;;;26.09;35.60;97513.38;5013768;28;20036;-30
2021/10/07 07:10:38;;;;;;;0.28;0.10;;;;;;;26.10;35.63;97514.22;5029009;28;20037;-33
2021/10/07 07:13:05;;;;;;;0.10;0.10;;;;;;;26.09;35.70;97502.03;5030707;28;20020;-31
2021/10/07 07:15:31;;;;;;;0.15;0.15;;;;;;;26.10;35.52;97508.97;5020054;28;20064;-36
2021/10/07 07:17:56;;;;;;;0.45;0.10;;;;;;;26.09;35.74;97508.09;5028494;28;20021;-35
2021/10/07 07:20:21;;;;;;;0.15;0.15;;;;;;;26.09;35.77;97513.38;5032895;28;20044;-34
2021/10/07 07:22:47;;;;;;;0.10;0.10;;;;;;;26.09;35.54;97516.00;5010161;28;20025;-34
2021/10/07 07:25:12;;;;;;;0.20;0.20;;;;;;;26.07;35.52;97509.97;5016961;28;20297;-33
2021/10/07 07:27:38;;;;;;;0.10;0.10;;;;;;;26.08;35.68;97511.66;5027050;28;20037;-37
2021/10/07 07:30:05;;;;;;;0.20;0.10;;;;;;;26.08;35.76;97516.91;5027450;28;20029;-33
2021/10/07 07:32:30;;;;;;;0.10;0.10;;;;;;;26.08;35.65;97511.66;5027551;28;20811;-35
2021/10/07 07:34:56;;;;;;;0.10;0.10;;;;;;;26.07;35.74;97515.22;5033462;28;20017;-31
2021/10/07 07:37:21;;;;;;;0.55;0.10;;;;;;;26.09;35.80;97520.41;5032789;28;20025;-33
2021/10/07 07:39:46;;;;;;;0.10;0.10;;;;;;;26.09;35.89;97523.03;5027517;28;20072;-34
2021/10/07 07:42:12;;;;;;;0.10;0.10;;;;;;;26.09;35.61;97517.78;5027137;28;20036;-33
2021/10/07 07:44:39;;;;;;;0.10;0.08;;;;;;;26.08;35.64;97524.78;5027980;28;20027;-32
2021/10/07 07:47:05;;;;;;;0.40;0.10;;;;;;;26.08;35.75;97532.66;5027977;28;20029;-36
2021/10/07 07:49:30;;;;;;;0.10;0.10;;;;;;;26.09;35.64;97528.28;5030710;28;20037;-34
2021/10/07 07:51:55;;;;;;;0.52;0.30;;;;;;;26.08;35.69;97537.94;5029583;28;20587;-34
2021/10/07 07:54:21;;;;;;;0.10;0.10;;;;;;;26.08;35.68;97537.94;5030057;28;20036;-32
2021/10/07 07:56:46;;;;;;;0.15;0.10;;;;;;;26.08;35.66;97540.56;5027431;28;20024;-32
2021/10/07 07:59:12;;;;;;;0.08;0.08;;;;;;;26.08;35.76;97532.66;5030370;28;20026;-34
2021/10/07 08:01:37;;;;;;;0.10;0.10;;;;;;;26.09;35.62;97550.13;5029067;28;20047;-29
2021/10/07 08:04:04;;;;;;;0.17;0.10;;;;;;;26.09;35.56;97539.63;5030396;28;20574;-34
2021/10/07 08:06:30;;;;;;;0.10;0.10;;;;;;;26.08;35.73;97540.56;5029962;28;20018;-32
2021/10/07 08:08:55;;;;;;;0.10;0.10;;;;;;;26.09;35.63;97541.41;5029016;28;20040;-34
2021/10/07 08:11:21;;;;;;;0.10;0.10;;;;;;;26.08;35.60;97537.94;4999050;28;20822;-34
2021/10/07 08:13:46;;;;;;;0.20;0.10;;;;;;;26.08;35.72;97543.19;5027778;28;20025;-30
2021/10/07 08:16:11;;;;;;;0.10;0.10;;;;;;;26.10;35.83;97548.38;5032611;28;20372;-34
2021/10/07 08:18:37;;;;;;;0.30;0.10;;;;;;;26.08;35.81;97551.06;5026537;28;20025;-35
2021/10/07 08:21:02;;;;;;;0.10;0.10;;;;;;;26.09;35.83;97552.75;5031884;28;20039;-36
2021/10/07 08:23:34;;;;;;;0.10;0.10;;;;;;;26.09;35.78;97547.50;5029759;28;20032;-32
2021/10/07 08:26:00;;;;;;;0.20;0.10;;;;;;;26.09;35.83;97549.31;5029585;28;20465;-38
2021/10/07 08:28:25;;;;;;;0.20;0.10;;;;;;;26.08;35.78;97548.44;5027565;28;20090;-30
2021/10/07 08:30:51;;;;;;;0.30;0.20;;;;;;;26.10;35.88;97553.63;5027185;28;20025;-33
2021/10/07 08:33:17;;;;;;;0.10;0.10;;;;;;;26.09;35.85;97555.38;5023850;28;20032;-36
2021/10/07 08:35:43;;;;;;;0.10;0.10;;;;;;;26.09;35.73;97552.75;5007526;28;20072;-36
2021/10/07 08:38:09;;;;;;;0.10;0.10;;;;;;;26.09;35.83;97563.28;5011253;28;20061;-34
2021/10/07 08:40:34;;;;;;;0.10;0.10;;;;;;;26.09;35.66;97560.63;5028760;28;20029;-36
2021/10/07 08:43:00;;;;;;;0.40;0.10;;;;;;;26.12;35.65;97564.06;5009447;28;20846;-28
2021/10/07 08:45:27;;;;;;;0.10;0.10;;;;;;;26.12;35.69;97564.06;5029904;28;20087;-31
2021/10/07 08:47:54;;;;;;;0.10;0.10;;;;;;;26.12;35.81;97559.66;5027149;28;20025;-36
2021/10/07 08:50:20;;;;;;;0.20;0.20;;;;;;;26.12;35.87;97562.28;5029641;28;20537;-32
2021/10/07 08:52:45;;;;;;;0.15;0.15;;;;;;;26.12;35.75;97569.31;5026193;28;20028;-36
2021/10/07 08:55:11;;;;;;;0.10;0.10;;;;;;;26.13;35.83;97563.16;5027602;28;20035;-35
2021/10/07 08:57:38;;;;;;;0.47;0.10;;;;;;;26.14;35.68;97562.22;5028297;28;20025;-36
2021/10/07 09:00:04;;;;;;;0.45;0.10;;;;;;;26.14;35.74;97559.59;5028181;28;20017;-34
2021/10/07 09:02:30;;;;;;;0.15;0.10;;;;;;;26.14;35.79;97551.72;5029364;28;20112;-33
2021/10/07 09:05:26;;;;;;;0.17;0.00;;;;;;;26.14;35.78;97554.34;5030153;28;20025;-37
2021/10/07 09:08:05;;;;;;;0.32;0.17;;;;;;;26.15;35.79;97559.53;5026856;28;20060;-35
2021/10/07 09:10:46;;;;;;;0.13;0.10;;;;;;;26.12;35.83;97553.56;5025566;28;20096;-30
2021/10/07 09:13:16;;;;;;;0.10;0.10;;;;;;;26.15;35.82;97551.66;5026718;28;20553;-36
2021/10/07 09:15:43;;;;;;;0.10;0.10;;;;;;;26.15;35.86;97549.03;5031220;28;20051;-30
2021/10/07 09:18:09;;;;;;;0.47;0.20;;;;;;;26.16;35.79;97549.88;5017914;28;20037;-37
2021/10/07 09:20:39;;;;;;;0.13;0.13;;;;;;;26.15;35.74;97553.41;5032089;28;20026;-32
2021/10/07 09:23:06;;;;;;;0.10;0.10;;;;;;;26.15;35.78;97563.91;5028813;28;20025;-29
2021/10/07 09:25:31;;;;;;;0.20;0.17;;;;;;;26.16;35.74;97560.41;5036878;28;20029;-36
2021/10/07 09:28:06;;;;;;;0.20;0.10;;;;;;;26.17;35.95;97556.84;5037773;28;20029;-33
2021/10/07 09:30:31;;;;;;;0.32;0.30;;;;;;;26.16;35.93;97560.41;5029886;28;20029;-33
2021/10/07 09:32:59;;;;;;;0.95;0.30;;;;;;;26.17;35.88;97567.34;5018811;28;20086;-35
2021/10/07 09:35:24;;;;;;;0.13;0.10;;;;;;;26.17;35.87;97568.22;5035674;28;20493;-32
2021/10/07 09:37:57;;;;;;;0.10;0.10;;;;;;;26.18;35.93;97563.81;5028914;28;20060;-31
2021/10/07 09:40:24;;;;;;;0.52;0.10;;;;;;;26.18;35.80;97564.66;5031402;28;20033;-31
2021/10/07 09:42:53;;;;;;;0.10;0.10;;;;;;;26.19;35.83;97562.88;5031753;28;20140;-32
2021/10/07 09:45:21;;;;;;;0.10;0.10;;;;;;;26.19;35.96;97565.50;5034688;28;20056;-35
2021/10/07 09:47:56;;;;;;;0.43;0.20;;;;;;;26.19;35.82;97570.75;5029669;28;20152;-33
2021/10/07 09:50:25;;;;;;;0.10;0.10;;;;;;;26.19;35.87;97569.00;5033218;28;20601;-32
2021/10/07 09:53:14;;;;;;;0.68;0.30;;;;;;;26.19;35.90;97573.38;5032343;28;20123;-33
2021/10/07 09:55:41;;;;;;;1.85;0.35;;;;;;;26.19;35.96;97566.38;5032864;28;20028;-30
2021/10/07 09:58:13;;;;;;;0.40;0.10;;;;;;;26.19;35.91;97565.50;5016392;28;20031;-29
2021/10/07 10:00:40;;;;;;;0.32;0.30;;;;;;;26.19;35.93;97570.75;5031323;28;20120;-31
2021/10/07 10:03:07;;;;;;;0.25;0.25;;;;;;;26.18;35.90;97569.91;5031736;28;20039;-34
2021/10/07 10:05:34;;;;;;;0.35;0.20;;;;;;;26.18;35.88;97569.91;5027569;28;20108;-33
2021/10/07 10:08:00;;;;;;;0.20;0.20;;;;;;;26.19;35.89;97571.63;5026212;28;20056;-35
2021/10/07 10:10:25;;;;;;;1.73;0.25;;;;;;;26.19;35.94;97565.50;5031056;28;20854;-36
2021/10/07 10:12:51;;;;;;;0.50;0.30;;;;;;;26.19;35.91;97560.25;5032632;28;20507;-27
2021/10/07 10:15:17;;;;;;;0.32;0.28;;;;;;;26.19;35.86;97558.50;5031211;28;20033;-33
2021/10/07 10:17:42;;;;;;;0.38;0.30;;;;;;;26.19;36.03;97560.25;5029151;28;20013;-33
2021/10/07 10:20:17;;;;;;;0.55;0.38;;;;;;;26.19;36.00;97566.38;5030511;28;20087;-34
2021/10/07 10:22:47;;;;;;;0.30;0.20;;;;;;;26.19;36.04;97563.75;5029324;28;20028;-31
2021/10/07 10:25:12;;;;;;;0.40;0.20;;;;;;;26.19;36.03;97561.13;5030721;28;20025;-36
2021/10/07 10:27:59;;;;;;;0.30;0.30;;;;;;;26.18;35.95;97561.16;5030672;28;20025;-30
2021/10/07 10:30:46;;;;;;;0.30;0.20;;;;;;;26.16;36.01;97563.03;5022043;28;20803;-34
2021/10/07 10:33:28;;;;;;;0.55;0.30;;;;;;;26.18;35.86;97563.81;5030463;28;20717;-35
2021/10/07 10:35:54;;;;;;;0.40;0.40;;;;;;;26.15;36.00;97562.16;5032161;28;20016;-29
2021/10/07 10:38:19;;;;;;;0.85;0.32;;;;;;;26.18;36.02;97563.81;5030248;28;20083;-36
2021/10/07 10:40:44;;;;;;;0.45;0.30;;;;;;;26.18;35.95;97567.28;5028600;28;20032;-32
2021/10/07 10:43:19;;;;;;;1.08;0.20;;;;;;;26.17;36.04;97569.97;5031190;28;20029;-33
2021/10/07 10:45:53;;;;;;;0.40;0.30;;;;;;;26.17;35.99;97573.47;5028636;28;20025;-35
2021/10/07 10:48:40;;;;;;;0.35;0.30;;;;;;;26.17;36.04;97572.59;5028243;28;20507;-34
2021/10/07 10:51:09;;;;;;;0.50;0.30;;;;;;;26.17;35.95;97573.47;5030255;28;20593;-36
2021/10/07 10:53:34;;;;;;;0.35;0.30;;;;;;;26.17;35.88;97572.59;5029039;28;20030;-31
2021/10/07 10:56:00;;;;;;;0.30;0.28;;;;;;;26.17;35.87;97568.22;4999168;28;20029;-33
2021/10/07 10:58:25;;;;;;;0.40;0.25;;;;;;;26.17;35.98;97573.47;5011376;28;20034;-34
2021/10/07 11:00:50;;;;;;;0.73;0.40;;;;;;;26.17;36.05;97575.22;5017560;28;20032;-34
2021/10/07 11:03:17;;;;;;;0.45;0.13;;;;;;;26.18;36.10;97583.06;5031556;28;20777;-35
2021/10/07 11:06:03;;;;;;;0.30;0.30;;;;;;;26.18;36.04;97579.56;5028658;28;20844;-33
2021/10/07 11:08:32;;;;;;;0.10;0.10;;;;;;;26.17;36.06;97580.50;5028360;28;20112;-34
2021/10/07 11:10:59;;;;;;;0.20;0.20;;;;;;;26.18;35.99;97577.81;5028827;28;20035;-32
2021/10/07 11:13:34;;;;;;;0.52;0.30;;;;;;;26.19;35.88;97576.00;5029738;28;20021;-34
2021/10/07 11:16:04;;;;;;;0.20;0.20;;;;;;;26.18;36.12;97575.19;5020592;28;20025;-29
2021/10/07 11:18:35;;;;;;;0.20;0.10;;;;;;;26.19;36.21;97568.13;5028819;28;20050;-32
2021/10/07 11:21:02;;;;;;;0.10;0.10;;;;;;;26.19;35.91;97562.88;5028518;28;20033;-33
2021/10/07 11:23:29;;;;;;;0.35;0.25;;;;;;;26.19;36.00;97562.88;5028803;28;20036;-33
2021/10/07 11:25:55;;;;;;;0.60;0.30;;;;;;;26.18;36.02;97554.16;5029833;28;20057;-32
2021/10/07 11:28:27;;;;;;;0.20;0.20;;;;;;;26.19;36.01;97565.50;5029715;28;20636;-36
2021/10/07 11:31:08;;;;;;;0.20;0.20;;;;;;;26.20;35.96;97567.22;5031593;28;20027;-32
2021/10/07 11:33:37;;;;;;;0.53;0.27;;;;;;;26.21;36.02;97568.94;5029510;28;20033;-34
2021/10/07 11:36:11;;;;;;;0.35;0.20;;;;;;;26.21;35.92;97569.78;5010430;28;20284;-34